createdAt,value
2019-01-20T00:01:17.276Z,74.80
2019-01-20T00:03:45.253Z,74.20
2019-01-20T00:06:12.913Z,73.60
2019-01-20T00:08:43.798Z,74.10
2019-01-20T00:11:16.546Z,74.00
2019-01-20T00:13:41.603Z,74.10
2019-01-20T00:16:09.436Z,74.40
2019-01-20T00:18:37.109Z,75.20
2019-01-20T00:21:04.772Z,73.50
2019-01-20T00:23:32.521Z,73.70
2019-01-20T00:26:00.248Z,73.80
2019-01-20T00:28:28.321Z,73.90
2019-01-20T00:30:56.255Z,74.30
2019-01-20T00:33:23.903Z,74.20
2019-01-20T00:35:51.791Z,74.20
2019-01-20T00:38:19.429Z,74.30
2019-01-20T00:40:47.044Z,74.60
2019-01-20T00:43:14.699Z,74.70
2019-01-20T00:45:42.352Z,75.00
2019-01-20T00:48:10.020Z,75.40
2019-01-20T00:50:37.637Z,75.40
2019-01-20T00:53:05.298Z,75.10
2019-01-20T00:55:32.930Z,75.20
2019-01-20T00:58:00.588Z,75.00
2019-01-20T01:00:30.433Z,75.30
2019-01-20T01:02:58.049Z,75.80
2019-01-20T01:05:25.986Z,75.80
2019-01-20T01:07:53.881Z,75.90
2019-01-20T01:10:21.559Z,76.00
2019-01-20T01:12:49.777Z,76.20
2019-01-20T01:15:17.588Z,76.20
2019-01-20T01:17:45.248Z,76.00
2019-01-20T01:20:13.788Z,76.00
2019-01-20T01:22:41.492Z,76.10
2019-01-20T01:25:10.420Z,76.20
2019-01-20T01:27:38.063Z,76.10
2019-01-20T01:30:08.937Z,75.80
2019-01-20T01:32:36.568Z,75.50
2019-01-20T01:35:04.785Z,75.60
2019-01-20T01:37:32.748Z,74.80
2019-01-20T01:40:00.522Z,74.90
2019-01-20T01:42:28.287Z,74.60
2019-01-20T01:44:55.999Z,74.60
2019-01-20T01:47:23.680Z,74.10
2019-01-20T01:49:51.373Z,73.70
2019-01-20T01:52:19.007Z,73.30
2019-01-20T01:54:46.696Z,72.30
2019-01-20T01:57:14.299Z,72.30
2019-01-20T01:59:41.893Z,73.00
2019-01-20T02:02:09.516Z,73.60
2019-01-20T02:04:37.157Z,73.80
2019-01-20T02:07:05.443Z,74.20
2019-01-20T02:09:33.129Z,74.60
2019-01-20T02:12:00.868Z,74.90
2019-01-20T02:14:28.734Z,74.90
2019-01-20T02:16:56.380Z,75.00
2019-01-20T02:19:23.999Z,75.10
2019-01-20T02:21:51.721Z,75.00
2019-01-20T02:24:19.373Z,74.50
2019-01-20T02:26:47.053Z,74.50
2019-01-20T02:29:14.744Z,74.80
2019-01-20T02:31:42.344Z,74.90
2019-01-20T02:34:10.055Z,74.60
2019-01-20T02:36:37.649Z,74.70
2019-01-20T02:39:06.267Z,74.30
2019-01-20T02:41:33.965Z,74.10
2019-01-20T02:44:01.601Z,74.30
2019-01-20T02:46:29.220Z,74.80
2019-01-20T02:48:56.870Z,74.80
2019-01-20T02:51:24.562Z,74.90
2019-01-20T02:53:52.331Z,74.80
2019-01-20T02:56:20.008Z,74.90
2019-01-20T02:58:47.669Z,75.90
2019-01-20T03:01:15.313Z,74.00
2019-01-20T03:03:43.100Z,74.00
2019-01-20T03:06:10.734Z,74.20
2019-01-20T03:08:38.408Z,74.40
2019-01-20T03:11:06.104Z,74.70
2019-01-20T03:13:33.802Z,74.80
2019-01-20T03:16:01.515Z,75.00
2019-01-20T03:18:29.124Z,74.70
2019-01-20T03:20:56.838Z,74.80
2019-01-20T03:23:24.569Z,75.20
2019-01-20T03:25:52.170Z,74.90
2019-01-20T03:28:19.952Z,74.70
2019-01-20T03:30:47.573Z,75.00
2019-01-20T03:33:15.338Z,75.10
2019-01-20T03:35:42.960Z,74.80
2019-01-20T03:38:10.670Z,74.80
2019-01-20T03:40:38.273Z,75.20
2019-01-20T03:43:05.908Z,75.40
2019-01-20T03:45:33.575Z,75.50
2019-01-20T03:48:01.234Z,75.50
2019-01-20T03:50:28.957Z,75.50
2019-01-20T03:52:56.642Z,75.50
2019-01-20T03:55:24.318Z,75.40
2019-01-20T03:57:51.925Z,75.60
2019-01-20T04:00:21.709Z,75.70
2019-01-20T04:02:53.058Z,75.50
2019-01-20T04:05:20.761Z,75.60
2019-01-20T04:07:48.412Z,75.80
2019-01-20T04:10:16.185Z,75.90
2019-01-20T04:12:44.102Z,76.10
2019-01-20T04:15:12.116Z,76.10
2019-01-20T04:17:40.471Z,76.40
2019-01-20T04:20:08.349Z,76.40
2019-01-20T04:22:36.040Z,76.60
2019-01-20T04:25:05.763Z,76.60
2019-01-20T04:27:33.497Z,76.60
2019-01-20T04:30:01.301Z,76.90
2019-01-20T04:32:29.039Z,76.80
2019-01-20T04:34:56.677Z,76.80
2019-01-20T04:37:24.315Z,76.80
2019-01-20T04:39:51.942Z,76.70
2019-01-20T04:42:19.575Z,76.70
2019-01-20T04:44:47.204Z,76.70
2019-01-20T04:47:14.945Z,76.50
2019-01-20T04:49:42.573Z,76.80
2019-01-20T04:52:10.308Z,76.70
2019-01-20T04:54:37.932Z,77.00
2019-01-20T04:57:05.697Z,77.40
2019-01-20T04:59:33.601Z,77.20
2019-01-20T05:02:01.248Z,77.10
2019-01-20T05:04:28.936Z,77.30
2019-01-20T05:06:56.560Z,77.60
2019-01-20T05:09:24.209Z,77.70
2019-01-20T05:11:51.841Z,77.90
2019-01-20T05:14:19.468Z,78.20
2019-01-20T05:16:47.217Z,78.40
2019-01-20T05:19:15.012Z,78.40
2019-01-20T05:21:42.700Z,78.80
2019-01-20T05:24:10.308Z,78.90
2019-01-20T05:26:37.886Z,79.30
2019-01-20T05:29:05.832Z,79.60
2019-01-20T05:31:33.412Z,79.60
2019-01-20T05:34:01.021Z,79.90
2019-01-20T05:36:28.802Z,79.70
2019-01-20T05:38:56.456Z,79.50
2019-01-20T05:41:24.109Z,79.50
2019-01-20T05:43:51.732Z,80.40
2019-01-20T05:46:19.388Z,79.50
2019-01-20T05:48:47.086Z,79.70
2019-01-20T05:51:14.727Z,79.80
2019-01-20T05:53:42.371Z,79.80
2019-01-20T05:56:09.969Z,80.00
2019-01-20T05:58:37.622Z,80.30
2019-01-20T06:01:05.238Z,80.40
2019-01-20T06:03:32.852Z,80.50
2019-01-20T06:06:00.520Z,80.00
2019-01-20T06:08:28.278Z,79.90
2019-01-20T06:10:55.941Z,79.70
2019-01-20T06:13:23.629Z,79.40
2019-01-20T06:15:51.234Z,79.00
2019-01-20T06:18:18.899Z,78.90
2019-01-20T06:20:46.732Z,78.80
2019-01-20T06:23:14.423Z,78.80
2019-01-20T06:25:42.057Z,78.60
2019-01-20T06:28:09.686Z,78.70
2019-01-20T06:30:37.329Z,78.70
2019-01-20T06:33:04.937Z,78.80
2019-01-20T06:35:32.611Z,78.90
2019-01-20T06:38:00.310Z,78.80
2019-01-20T06:40:27.885Z,78.90
2019-01-20T06:43:01.625Z,78.60
2019-01-20T06:45:24.980Z,78.80
2019-01-20T06:47:52.663Z,78.40
2019-01-20T06:50:20.748Z,78.50
2019-01-20T06:52:48.474Z,78.40
2019-01-20T06:55:16.111Z,78.40
2019-01-20T06:57:43.840Z,79.60
2019-01-20T07:00:16.476Z,79.10
2019-01-20T07:02:44.104Z,78.70
2019-01-20T07:05:12.058Z,78.40
2019-01-20T07:07:39.710Z,77.90
2019-01-20T07:10:07.996Z,77.90
2019-01-20T07:12:35.633Z,77.50
2019-01-20T07:15:04.393Z,77.30
2019-01-20T07:17:32.064Z,77.10
2019-01-20T07:19:59.725Z,76.60
2019-01-20T07:22:27.329Z,76.20
2019-01-20T07:24:54.984Z,76.50
2019-01-20T07:27:22.597Z,76.40
2019-01-20T07:29:50.227Z,75.80
2019-01-20T07:32:17.917Z,75.20
2019-01-20T07:34:45.716Z,75.40
2019-01-20T07:37:13.537Z,75.10
2019-01-20T07:39:41.143Z,74.60
2019-01-20T07:42:08.760Z,74.40
2019-01-20T07:44:36.352Z,73.90
2019-01-20T07:47:03.993Z,74.20
2019-01-20T07:49:31.634Z,74.00
2019-01-20T07:51:59.540Z,73.70
2019-01-20T07:54:27.248Z,73.60
2019-01-20T07:56:54.909Z,73.20
2019-01-20T07:59:22.512Z,72.30
2019-01-20T08:01:50.180Z,72.10
2019-01-20T08:04:17.785Z,71.70
2019-01-20T08:06:45.844Z,72.40
2019-01-20T08:09:13.476Z,72.80
2019-01-20T08:11:41.063Z,72.70
2019-01-20T08:14:08.684Z,72.50
2019-01-20T08:16:36.296Z,71.40
2019-01-20T08:19:03.909Z,70.70
2019-01-20T08:21:31.504Z,71.80
2019-01-20T08:23:59.119Z,71.50
2019-01-20T08:26:27.058Z,72.00
2019-01-20T08:28:54.656Z,70.90
2019-01-20T08:31:22.268Z,68.80
2019-01-20T08:33:49.957Z,69.30
2019-01-20T08:36:17.870Z,69.40
2019-01-20T08:38:45.526Z,66.70
2019-01-20T08:41:13.156Z,66.10
2019-01-20T08:43:40.798Z,61.80
2019-01-20T08:46:36.077Z,60.30
2019-01-20T08:49:04.262Z,57.30
2019-01-20T08:51:32.640Z,57.80
2019-01-20T08:54:00.317Z,56.10
2019-01-20T08:56:28.053Z,55.70
2019-01-20T08:58:55.685Z,55.50
2019-01-20T09:01:23.289Z,53.90
2019-01-20T09:03:50.912Z,54.10
2019-01-20T09:06:18.514Z,52.80
2019-01-20T09:08:46.218Z,53.00
2019-01-20T09:11:13.809Z,54.20
2019-01-20T09:13:41.527Z,55.00
2019-01-20T09:16:09.321Z,53.70
2019-01-20T09:18:36.946Z,52.00
2019-01-20T09:21:04.525Z,51.70
2019-01-20T09:23:32.210Z,52.50
2019-01-20T09:26:00.624Z,52.90
2019-01-20T09:28:28.254Z,51.40
2019-01-20T09:30:55.876Z,51.10
2019-01-20T09:33:24.709Z,50.10
2019-01-20T09:35:52.599Z,47.90
2019-01-20T09:38:20.308Z,47.90
2019-01-20T09:40:48.009Z,48.20
2019-01-20T09:43:15.673Z,48.10
2019-01-20T09:45:43.474Z,47.80
2019-01-20T09:48:11.372Z,46.20
2019-01-20T09:50:38.983Z,45.30
2019-01-20T09:53:06.647Z,46.00
2019-01-20T09:55:34.434Z,44.30
2019-01-20T09:58:02.343Z,44.30
2019-01-20T10:00:30.644Z,44.40
2019-01-20T10:02:58.670Z,45.10
2019-01-20T10:05:26.310Z,43.90
2019-01-20T10:07:54.008Z,43.60
2019-01-20T10:10:21.691Z,43.80
2019-01-20T10:12:49.389Z,43.00
2019-01-20T10:15:17.092Z,42.70
2019-01-20T10:17:44.747Z,42.90
2019-01-20T10:20:18.187Z,43.90
2019-01-20T10:22:45.797Z,44.60
2019-01-20T10:25:15.196Z,43.80
2019-01-20T10:27:42.969Z,44.70
2019-01-20T10:30:17.553Z,44.90
2019-01-20T10:32:48.044Z,45.60
2019-01-20T10:35:14.804Z,46.80
2019-01-20T10:37:42.511Z,47.10
2019-01-20T10:40:10.215Z,47.70
2019-01-20T10:42:37.803Z,48.50
2019-01-20T10:45:06.659Z,49.10
2019-01-20T10:47:34.244Z,48.90
2019-01-20T10:50:01.976Z,49.10
2019-01-20T10:52:29.568Z,49.40
2019-01-20T10:54:57.176Z,49.60
2019-01-20T10:57:24.797Z,50.00
2019-01-20T10:59:52.429Z,50.20
2019-01-20T11:02:20.121Z,50.90
2019-01-20T11:04:48.030Z,50.80
2019-01-20T11:07:16.337Z,50.30
2019-01-20T11:09:44.024Z,49.90
2019-01-20T11:12:11.630Z,49.70
2019-01-20T11:14:39.184Z,49.20
2019-01-20T11:17:06.887Z,48.40
2019-01-20T11:19:34.697Z,48.90
2019-01-20T11:22:02.396Z,48.30
2019-01-20T11:24:30.108Z,47.90
2019-01-20T11:26:57.671Z,48.10
2019-01-20T11:29:25.296Z,48.70
2019-01-20T11:31:52.923Z,48.70
2019-01-20T11:34:20.816Z,48.80
2019-01-20T11:36:48.422Z,47.60
2019-01-20T11:39:16.046Z,47.00
2019-01-20T11:41:43.640Z,46.10
2019-01-20T11:44:17.155Z,46.20
2019-01-20T11:46:43.573Z,46.60
2019-01-20T11:49:11.256Z,46.70
2019-01-20T11:51:38.895Z,47.20
2019-01-20T11:54:06.551Z,47.50
2019-01-20T11:56:34.185Z,47.80
2019-01-20T11:59:01.776Z,48.10
2019-01-20T12:01:29.352Z,47.90
2019-01-20T12:03:56.948Z,46.80
2019-01-20T12:06:24.553Z,46.40
2019-01-20T12:08:52.148Z,46.20
2019-01-20T12:11:20.028Z,46.00
2019-01-20T12:13:47.631Z,46.20
2019-01-20T12:16:15.212Z,46.10
2019-01-20T12:18:42.876Z,45.90
2019-01-20T12:21:10.817Z,46.20
2019-01-20T12:23:38.405Z,46.50
2019-01-20T12:26:05.966Z,46.40
2019-01-20T12:28:33.629Z,46.80
2019-01-20T12:31:01.873Z,47.10
2019-01-20T12:33:29.481Z,47.30
2019-01-20T12:35:57.081Z,47.60
2019-01-20T12:38:24.906Z,48.00
2019-01-20T12:40:52.529Z,48.50
2019-01-20T12:43:20.212Z,48.60
2019-01-20T12:45:47.905Z,49.10
2019-01-20T12:48:15.494Z,49.60
2019-01-20T12:50:43.157Z,50.20
2019-01-20T12:53:10.778Z,50.50
2019-01-20T12:55:38.364Z,51.10
2019-01-20T12:58:06.484Z,51.50
2019-01-20T13:00:34.263Z,52.50
2019-01-20T13:03:01.894Z,52.40
2019-01-20T13:05:30.375Z,52.90
2019-01-20T13:07:58.033Z,53.40
2019-01-20T13:10:25.689Z,53.60
2019-01-20T13:12:53.316Z,53.90
2019-01-20T13:15:21.244Z,54.70
2019-01-20T13:17:49.068Z,55.70
2019-01-20T13:20:18.803Z,56.30
2019-01-20T13:22:46.416Z,56.70
2019-01-20T13:25:16.476Z,57.00
2019-01-20T13:27:44.057Z,57.90
2019-01-20T13:30:16.851Z,58.30
2019-01-20T13:32:45.010Z,58.80
2019-01-20T13:35:12.868Z,58.80
2019-01-20T13:37:43.019Z,59.50
2019-01-20T13:40:13.600Z,59.80
2019-01-20T13:42:41.180Z,59.70
2019-01-20T13:45:09.584Z,60.30
2019-01-20T13:47:37.188Z,60.60
2019-01-20T13:50:06.924Z,61.10
2019-01-20T13:52:34.517Z,61.30
2019-01-20T13:55:02.108Z,61.40
2019-01-20T13:57:29.739Z,61.50
2019-01-20T13:59:57.368Z,62.00
2019-01-20T14:02:25.076Z,62.10
2019-01-20T14:04:52.693Z,62.50
2019-01-20T14:07:20.290Z,63.00
2019-01-20T14:09:47.894Z,63.80
2019-01-20T14:12:15.488Z,64.40
2019-01-20T14:14:43.104Z,64.80
2019-01-20T14:17:10.764Z,65.60
2019-01-20T14:19:38.371Z,65.10
2019-01-20T14:22:05.992Z,65.10
2019-01-20T14:24:33.628Z,65.30
2019-01-20T14:27:02.512Z,65.70
2019-01-20T14:29:30.132Z,65.70
2019-01-20T14:31:59.036Z,66.30
2019-01-20T14:34:26.637Z,66.70
2019-01-20T14:36:54.287Z,67.00
2019-01-20T14:39:21.960Z,67.00
2019-01-20T14:41:49.608Z,67.20
2019-01-20T14:44:17.212Z,67.70
2019-01-20T14:46:44.785Z,68.20
2019-01-20T14:49:12.379Z,68.80
2019-01-20T14:51:39.992Z,68.80
2019-01-20T14:54:07.593Z,68.80
2019-01-20T14:56:35.195Z,69.40
2019-01-20T14:59:02.748Z,69.80
2019-01-20T15:01:30.344Z,70.20
2019-01-20T15:03:57.932Z,70.40
2019-01-20T15:06:25.520Z,70.80
2019-01-20T15:08:53.457Z,70.90
2019-01-20T15:11:21.044Z,70.50
2019-01-20T15:13:48.680Z,71.40
2019-01-20T15:16:16.503Z,71.60
2019-01-20T15:18:44.104Z,71.40
2019-01-20T15:21:11.696Z,72.40
2019-01-20T15:23:39.307Z,72.70
2019-01-20T15:26:07.034Z,72.90
2019-01-20T15:28:34.612Z,73.00
2019-01-20T15:31:02.188Z,73.70
2019-01-20T15:33:29.816Z,74.00
2019-01-20T15:35:57.400Z,74.40
2019-01-20T15:38:25.017Z,74.80
2019-01-20T15:40:52.676Z,75.30
2019-01-20T15:43:20.300Z,75.70
2019-01-20T15:45:48.180Z,76.30
2019-01-20T15:48:15.756Z,76.50
2019-01-20T15:50:43.372Z,76.70
2019-01-20T15:53:11.069Z,76.80
2019-01-20T15:55:38.628Z,77.30
2019-01-20T15:58:06.504Z,77.40
2019-01-20T16:00:34.082Z,77.90
2019-01-20T16:03:01.713Z,78.10
2019-01-20T16:05:29.581Z,78.40
2019-01-20T16:07:57.497Z,78.70
2019-01-20T16:10:25.516Z,78.90
2019-01-20T16:12:53.205Z,79.30
2019-01-20T16:15:25.959Z,79.00
2019-01-20T16:17:54.878Z,79.40
2019-01-20T16:20:22.636Z,79.60
2019-01-20T16:22:50.396Z,79.80
2019-01-20T16:25:20.104Z,79.90
2019-01-20T16:27:47.700Z,80.40
2019-01-20T16:30:18.143Z,80.40
2019-01-20T16:32:45.852Z,80.70
2019-01-20T16:35:13.968Z,80.90
2019-01-20T16:37:41.613Z,81.00
2019-01-20T16:40:11.630Z,81.10
2019-01-20T16:42:39.272Z,81.50
2019-01-20T16:45:11.420Z,81.80
2019-01-20T16:47:41.174Z,81.90
2019-01-20T16:50:11.149Z,82.40
2019-01-20T16:52:38.860Z,82.60
2019-01-20T16:55:07.555Z,82.60
2019-01-20T16:57:35.212Z,82.80
2019-01-20T17:00:03.552Z,83.30
2019-01-20T17:02:31.407Z,83.40
2019-01-20T17:04:59.002Z,83.70
2019-01-20T17:07:27.102Z,84.00
2019-01-20T17:09:54.767Z,84.10
2019-01-20T17:12:22.535Z,84.00
2019-01-20T17:14:50.192Z,83.90
2019-01-20T17:17:17.853Z,84.70
2019-01-20T17:19:45.804Z,84.80
2019-01-20T17:22:13.428Z,84.90
2019-01-20T17:24:41.025Z,84.40
2019-01-20T17:27:08.672Z,84.70
2019-01-20T17:29:36.303Z,84.60
2019-01-20T17:32:04.648Z,84.80
2019-01-20T17:34:32.625Z,84.60
2019-01-20T17:37:00.211Z,84.80
2019-01-20T17:39:27.892Z,84.70
2019-01-20T17:41:55.535Z,84.50
2019-01-20T17:44:23.309Z,84.90
2019-01-20T17:46:51.009Z,84.60
2019-01-20T17:49:18.638Z,84.80
2019-01-20T17:51:46.248Z,84.90
2019-01-20T17:54:13.888Z,85.10
2019-01-20T17:56:41.461Z,85.20
2019-01-20T17:59:09.077Z,85.30
2019-01-20T18:01:36.973Z,85.60
2019-01-20T18:04:04.670Z,85.70
2019-01-20T18:06:32.304Z,85.50
2019-01-20T18:09:00.240Z,85.30
2019-01-20T18:11:28.083Z,85.30
2019-01-20T18:13:55.820Z,85.60
2019-01-20T18:16:23.592Z,85.40
2019-01-20T18:18:51.464Z,85.60
2019-01-20T18:21:19.235Z,85.50
2019-01-20T18:23:46.933Z,85.60
2019-01-20T18:26:14.644Z,85.60
2019-01-20T18:28:42.250Z,85.60
2019-01-20T18:31:09.894Z,85.90
2019-01-20T18:33:37.557Z,86.90
2019-01-20T18:36:05.205Z,86.40
2019-01-20T18:38:32.812Z,86.40
2019-01-20T18:41:00.412Z,86.00
2019-01-20T18:43:28.145Z,86.20
2019-01-20T18:46:01.607Z,86.00
2019-01-20T18:48:25.281Z,86.10
2019-01-20T18:50:52.951Z,85.70
2019-01-20T18:53:20.542Z,86.10
2019-01-20T18:55:48.140Z,86.10
2019-01-20T18:58:15.768Z,86.10
2019-01-20T19:00:48.756Z,85.90
2019-01-20T19:03:16.589Z,86.00
2019-01-20T19:05:44.179Z,86.20
2019-01-20T19:08:11.835Z,86.00
2019-01-20T19:10:39.735Z,86.30
2019-01-20T19:13:07.332Z,86.40
2019-01-20T19:15:35.002Z,86.40
2019-01-20T19:18:02.659Z,86.60
2019-01-20T19:20:30.309Z,87.00
2019-01-20T19:22:58.074Z,86.90
2019-01-20T19:25:25.895Z,86.90
2019-01-20T19:27:53.722Z,86.70
2019-01-20T19:30:24.176Z,86.70
2019-01-20T19:32:51.951Z,86.50
2019-01-20T19:35:19.609Z,86.20
2019-01-20T19:37:47.509Z,86.30
2019-01-20T19:40:15.116Z,86.50
2019-01-20T19:43:22.984Z,86.80
2019-01-20T19:46:04.444Z,87.00
2019-01-20T19:48:47.554Z,87.20
2019-01-20T19:51:41.970Z,87.10
2019-01-20T19:54:11.183Z,87.00
2019-01-20T19:56:54.316Z,87.10
2019-01-20T19:59:34.562Z,87.20
2019-01-20T20:02:14.367Z,87.40
2019-01-20T20:04:58.118Z,87.40
2019-01-20T20:07:38.063Z,87.60
2019-01-20T20:10:19.338Z,87.40
2019-01-20T20:12:59.769Z,87.80
2019-01-20T20:15:39.989Z,88.20
2019-01-20T20:18:07.612Z,88.10
2019-01-20T20:20:54.944Z,88.40
2019-01-20T20:23:38.062Z,88.30
2019-01-20T20:29:15.572Z,88.10
2019-01-20T20:31:56.158Z,87.60
2019-01-20T20:34:36.200Z,87.80
2019-01-20T20:37:48.033Z,88.10
2019-01-20T20:39:51.399Z,87.20
2019-01-20T20:48:28.088Z,86.20
2019-01-20T20:50:55.896Z,85.50
2019-01-20T20:56:30.879Z,84.20
2019-01-20T20:59:11.204Z,84.50
2019-01-20T21:01:54.841Z,84.20
2019-01-20T21:04:47.273Z,84.20
2019-01-20T21:07:30.637Z,84.10
2019-01-20T21:10:03.798Z,84.40
2019-01-20T21:12:45.489Z,84.10
2019-01-20T21:15:26.105Z,83.80
2019-01-20T21:18:10.991Z,83.70
2019-01-20T21:20:52.723Z,83.30
2019-01-20T21:23:33.329Z,83.50
2019-01-20T21:26:15.572Z,83.30
2019-01-20T21:28:56.664Z,82.60
2019-01-20T21:31:36.506Z,83.00
2019-01-20T21:34:18.662Z,83.20
2019-01-20T21:37:00.795Z,83.20
2019-01-20T21:39:40.595Z,83.70
2019-01-20T21:42:22.972Z,83.70
2019-01-20T21:45:02.713Z,83.90
2019-01-20T21:47:44.424Z,84.10
2019-01-20T21:50:24.456Z,85.10
2019-01-20T21:53:07.132Z,85.10
2019-01-20T21:56:13.630Z,85.60
2019-01-20T21:58:36.607Z,85.50
2019-01-20T22:01:34.807Z,85.90
2019-01-20T22:04:04.336Z,86.00
2019-01-20T22:06:50.647Z,86.30
2019-01-20T22:10:19.364Z,86.40
2019-01-20T22:12:16.404Z,86.40
2019-01-20T22:15:02.307Z,86.50
2019-01-20T22:17:25.972Z,86.60
2019-01-20T22:19:53.795Z,87.30
2019-01-20T22:22:21.438Z,87.80
2019-01-20T22:24:52.340Z,88.10
2019-01-20T22:27:19.980Z,87.90
2019-01-20T22:29:47.644Z,88.10
2019-01-20T22:32:15.567Z,88.40
2019-01-20T22:34:43.212Z,88.60
2019-01-20T22:37:10.997Z,88.70
2019-01-20T22:39:38.658Z,88.50
2019-01-20T22:42:06.483Z,88.20
2019-01-20T22:44:34.168Z,88.20
2019-01-20T22:47:01.904Z,88.10
2019-01-20T22:49:30.720Z,88.20
2019-01-20T22:51:58.381Z,88.20
2019-01-20T22:54:26.294Z,88.20
2019-01-20T22:56:53.964Z,88.20
2019-01-20T22:59:21.582Z,88.40
2019-01-20T23:01:49.136Z,88.10
2019-01-20T23:04:16.762Z,87.80
2019-01-20T23:06:44.397Z,87.50
2019-01-20T23:09:12.067Z,87.30
2019-01-20T23:11:39.736Z,87.10
2019-01-20T23:14:07.352Z,87.20
2019-01-20T23:16:35.072Z,87.20
2019-01-20T23:19:02.681Z,87.20
2019-01-20T23:21:30.271Z,87.20
2019-01-20T23:23:57.853Z,87.20
2019-01-20T23:26:25.972Z,87.20
2019-01-20T23:28:53.567Z,87.10
2019-01-20T23:31:21.133Z,87.20
2019-01-20T23:33:48.738Z,87.00
2019-01-20T23:36:16.368Z,87.10
2019-01-20T23:38:43.957Z,86.90
2019-01-20T23:41:11.589Z,86.90
2019-01-20T23:43:39.208Z,86.70
2019-01-20T23:46:06.804Z,86.60
2019-01-20T23:48:34.442Z,86.40
2019-01-20T23:51:02.034Z,86.20
2019-01-20T23:53:29.739Z,86.00
2019-01-20T23:55:57.316Z,85.70
2019-01-20T23:58:25.060Z,85.60
